Time,TemperatureF,DewpointF,PressureIn,WindDirection,WindDirectionDegrees,WindSpeedMPH,WindSpeedGustMPH,Humidity,HourlyPrecipIn,Conditions,Clouds,dailyrainin,SolarRadiationWatts/m^2,SoftwareType,DateUTC
2013-09-29 00:01:00,48.4,46.1,30.29,WSW,253,0.0,1.0,92,0.00,,,0.00,0.0,WUHU216DAVISVP2,2013-09-29 04:01:00,
2013-09-29 00:02:00,48.5,46.2,30.29,WSW,253,0.0,1.0,92,0.00,,,0.00,0.0,WUHU216DAVISVP2,2013-09-29 04:02:00,
2013-09-29 00:07:00,48.4,46.1,30.29,WSW,253,0.0,1.0,92,0.00,,,0.00,0.0,WUHU216DAVISVP2,2013-09-29 04:07:00,
2013-09-29 00:12:00,48.4,46.1,30.29,WSW,253,0.0,1.0,92,0.00,,,0.00,0.0,WUHU216DAVISVP2,2013-09-29 04:12:00,
2013-09-29 00:17:00,48.4,46.1,30.28,WSW,253,0.0,1.0,92,0.00,,,0.00,0.0,WUHU216DAVISVP2,2013-09-29 04:17:00,
2013-09-29 00:22:00,48.3,46.0,30.28,WSW,253,0.0,0.0,92,0.00,,,0.00,0.0,WUHU216DAVISVP2,2013-09-29 04:22:00,
2013-09-29 00:27:00,48.2,45.9,30.28,WSW,253,0.0,0.0,92,0.00,,,0.00,0.0,WUHU216DAVISVP2,2013-09-29 04:27:00,
2013-09-29 00:32:00,48.2,46.2,30.28,WSW,253,0.0,1.0,93,0.00,,,0.00,0.0,WUHU216DAVISVP2,2013-09-29 04:32:00,
2013-09-29 00:37:00,48.1,45.8,30.28,WSW,253,0.0,1.0,92,0.00,,,0.00,0.0,WUHU216DAVISVP2,2013-09-29 04:37:00,
2013-09-29 00:42:00,47.9,45.6,30.28,WSW,253,0.0,1.0,92,0.00,,,0.00,0.0,WUHU216DAVISVP2,2013-09-29 04:42:00,
2013-09-29 00:47:00,47.5,45.2,30.28,WSW,253,0.0,1.0,92,0.00,,,0.00,0.0,WUHU216DAVISVP2,2013-09-29 04:47:00,
2013-09-29 00:52:00,47.1,44.9,30.28,WSW,253,0.0,1.0,92,0.00,,,0.00,0.0,WUHU216DAVISVP2,2013-09-29 04:52:00,
2013-09-29 00:57:00,47.0,44.8,30.28,WSW,253,0.0,1.0,92,0.00,,,0.00,0.0,WUHU216DAVISVP2,2013-09-29 04:57:00,
2013-09-29 01:02:00,46.9,44.7,30.28,WSW,253,0.0,1.0,92,0.00,,,0.00,0.0,WUHU216DAVISVP2,2013-09-29 05:02:00,
2013-09-29 01:07:00,47.0,44.8,30.28,WSW,253,0.0,1.0,92,0.00,,,0.00,0.0,WUHU216DAVISVP2,2013-09-29 05:07:00,
2013-09-29 01:12:00,47.2,45.0,30.28,WSW,253,0.0,0.0,92,0.00,,,0.00,0.0,WUHU216DAVISVP2,2013-09-29 05:12:00,
2013-09-29 01:17:00,47.4,45.1,30.28,WSW,253,0.0,0.0,92,0.00,,,0.00,0.0,WUHU216DAVISVP2,2013-09-29 05:17:00,
2013-09-29 01:22:00,47.3,45.0,30.28,WSW,253,0.0,0.0,92,0.00,,,0.00,0.0,WUHU216DAVISVP2,2013-09-29 05:22:00,
2013-09-29 01:27:00,47.9,45.9,30.28,WSW,253,0.0,0.0,93,0.00,,,0.00,0.0,WUHU216DAVISVP2,2013-09-29 05:27:00,
2013-09-29 01:32:00,48.1,46.1,30.28,WSW,253,0.0,1.0,93,0.00,,,0.00,0.0,WUHU216DAVISVP2,2013-09-29 05:32:00,
2013-09-29 01:37:00,48.2,46.2,30.28,WSW,253,0.0,1.0,93,0.00,,,0.00,0.0,WUHU216DAVISVP2,2013-09-29 05:37:00,
2013-09-29 01:42:00,47.7,45.4,30.28,WSW,253,0.0,2.0,92,0.00,,,0.00,0.0,WUHU216DAVISVP2,2013-09-29 05:42:00,
2013-09-29 01:47:00,47.4,45.1,30.27,WSW,253,0.0,2.0,92,0.00,,,0.00,0.0,WUHU216DAVISVP2,2013-09-29 05:47:00,
2013-09-29 01:52:00,46.9,44.7,30.27,WSW,253,0.0,2.0,92,0.00,,,0.00,0.0,WUHU216DAVISVP2,2013-09-29 05:52:00,
2013-09-29 01:57:00,46.8,44.6,30.27,WSW,253,0.0,2.0,92,0.00,,,0.00,0.0,WUHU216DAVISVP2,2013-09-29 05:57:00,
2013-09-29 02:02:00,46.7,44.5,30.27,WSW,253,0.0,1.0,92,0.00,,,0.00,0.0,WUHU216DAVISVP2,2013-09-29 06:02:00,
2013-09-29 02:07:00,46.9,44.7,30.27,WSW,253,0.0,1.0,92,0.00,,,0.00,0.0,WUHU216DAVISVP2,2013-09-29 06:07:00,
2013-09-29 02:12:00,47.0,45.0,30.27,WSW,253,0.0,0.0,93,0.00,,,0.00,0.0,WUHU216DAVISVP2,2013-09-29 06:12:00,
2013-09-29 02:17:00,47.2,45.2,30.27,WSW,253,0.0,0.0,93,0.00,,,0.00,0.0,WUHU216DAVISVP2,2013-09-29 06:17:00,
2013-09-29 02:22:00,47.6,45.6,30.27,WSW,253,0.0,1.0,93,0.00,,,0.00,0.0,WUHU216DAVISVP2,2013-09-29 06:22:00,
2013-09-29 02:27:00,47.7,45.7,30.27,WSW,253,1.0,1.0,93,0.00,,,0.00,0.0,WUHU216DAVISVP2,2013-09-29 06:27:00,
2013-09-29 02:32:00,47.6,45.6,30.27,WSW,253,0.0,1.0,93,0.00,,,0.00,0.0,WUHU216DAVISVP2,2013-09-29 06:32:00,
2013-09-29 02:37:00,47.5,45.5,30.27,WSW,253,0.0,1.0,93,0.00,,,0.00,0.0,WUHU216DAVISVP2,2013-09-29 06:37:00,
2013-09-29 02:42:00,47.4,45.4,30.26,WSW,253,0.0,1.0,93,0.00,,,0.00,0.0,WUHU216DAVISVP2,2013-09-29 06:42:00,
2013-09-29 02:47:00,47.4,45.4,30.26,WSW,253,0.0,1.0,93,0.00,,,0.00,0.0,WUHU216DAVISVP2,2013-09-29 06:47:00,
2013-09-29 02:52:00,47.3,45.3,30.26,WSW,253,0.0,0.0,93,0.00,,,0.00,0.0,WUHU216DAVISVP2,2013-09-29 06:52:00,
2013-09-29 02:57:00,47.5,45.5,30.26,WSW,253,1.0,2.0,93,0.00,,,0.00,0.0,WUHU216DAVISVP2,2013-09-29 06:57:00,
2013-09-29 03:02:00,47.4,45.7,30.26,WSW,253,1.0,2.0,94,0.00,,,0.00,0.0,WUHU216DAVISVP2,2013-09-29 07:02:00,
2013-09-29 03:07:00,47.4,45.8,30.26,WSW,253,0.0,2.0,94,0.00,,,0.00,0.0,WUHU216DAVISVP2,2013-09-29 07:07:00,
2013-09-29 03:12:00,47.5,45.9,30.26,WSW,253,1.0,2.0,94,0.00,,,0.00,0.0,WUHU216DAVISVP2,2013-09-29 07:12:00,
2013-09-29 03:17:00,47.6,46.0,30.26,WSW,253,0.0,1.0,94,0.00,,,0.00,0.0,WUHU216DAVISVP2,2013-09-29 07:17:00,
2013-09-29 03:22:00,47.5,45.9,30.26,WSW,253,1.0,1.0,94,0.00,,,0.00,0.0,WUHU216DAVISVP2,2013-09-29 07:22:00,
2013-09-29 03:27:00,47.5,45.8,30.26,WSW,253,0.0,1.0,94,0.00,,,0.00,0.0,WUHU216DAVISVP2,2013-09-29 07:27:00,
2013-09-29 03:32:00,47.6,45.9,30.26,WSW,253,1.0,1.0,94,0.00,,,0.00,0.0,WUHU216DAVISVP2,2013-09-29 07:32:00,
2013-09-29 03:37:00,47.7,46.0,30.26,WSW,253,0.0,1.0,94,0.00,,,0.00,0.0,WUHU216DAVISVP2,2013-09-29 07:37:00,
2013-09-29 03:42:00,47.8,46.1,30.25,WSW,253,0.0,1.0,94,0.00,,,0.00,0.0,WUHU216DAVISVP2,2013-09-29 07:42:00,
2013-09-29 03:47:00,47.6,45.9,30.26,WSW,253,0.0,1.0,94,0.00,,,0.00,0.0,WUHU216DAVISVP2,2013-09-29 07:47:00,
2013-09-29 03:52:00,47.6,45.9,30.26,WSW,253,0.0,1.0,94,0.00,,,0.00,0.0,WUHU216DAVISVP2,2013-09-29 07:52:00,
2013-09-29 03:57:00,47.6,45.9,30.26,WSW,253,0.0,1.0,94,0.00,,,0.00,0.0,WUHU216DAVISVP2,2013-09-29 07:57:00,
2013-09-29 04:02:00,47.5,45.8,30.26,WSW,253,1.0,1.0,94,0.00,,,0.00,0.0,WUHU216DAVISVP2,2013-09-29 08:02:00,
2013-09-29 04:07:00,47.4,45.7,30.26,WSW,253,0.0,1.0,94,0.00,,,0.00,0.0,WUHU216DAVISVP2,2013-09-29 08:07:00,
2013-09-29 04:12:00,47.5,45.8,30.26,WSW,253,0.0,1.0,94,0.00,,,0.00,0.0,WUHU216DAVISVP2,2013-09-29 08:12:00,
2013-09-29 04:17:00,47.2,45.5,30.26,WSW,253,0.0,1.0,94,0.00,,,0.00,0.0,WUHU216DAVISVP2,2013-09-29 08:17:00,
2013-09-29 04:22:00,47.2,45.5,30.26,WSW,253,0.0,1.0,94,0.00,,,0.00,0.0,WUHU216DAVISVP2,2013-09-29 08:22:00,
2013-09-29 04:27:00,47.1,45.4,30.25,WSW,253,0.0,1.0,94,0.00,,,0.00,0.0,WUHU216DAVISVP2,2013-09-29 08:27:00,
2013-09-29 04:32:00,47.1,45.5,30.25,WSW,253,0.0,1.0,94,0.00,,,0.00,0.0,WUHU216DAVISVP2,2013-09-29 08:32:00,
2013-09-29 04:37:00,47.2,45.6,30.25,WSW,253,0.0,1.0,94,0.00,,,0.00,0.0,WUHU216DAVISVP2,2013-09-29 08:37:00,
2013-09-29 04:42:00,47.4,45.7,30.25,WSW,253,1.0,1.0,94,0.00,,,0.00,0.0,WUHU216DAVISVP2,2013-09-29 08:42:00,
2013-09-29 04:47:00,47.4,45.7,30.25,WSW,253,2.0,2.0,94,0.00,,,0.00,0.0,WUHU216DAVISVP2,2013-09-29 08:47:00,
2013-09-29 04:52:00,47.5,45.8,30.25,WSW,253,1.0,2.0,94,0.00,,,0.00,0.0,WUHU216DAVISVP2,2013-09-29 08:52:00,
2013-09-29 04:57:00,47.2,45.5,30.25,WSW,253,0.0,2.0,94,0.00,,,0.00,0.0,WUHU216DAVISVP2,2013-09-29 08:57:00,
2013-09-29 05:02:00,47.3,45.6,30.25,WSW,253,1.0,2.0,94,0.00,,,0.00,0.0,WUHU216DAVISVP2,2013-09-29 09:02:00,
2013-09-29 05:07:00,47.6,45.9,30.25,WSW,253,0.0,2.0,94,0.00,,,0.00,0.0,WUHU216DAVISVP2,2013-09-29 09:07:00,
2013-09-29 05:12:00,47.4,45.7,30.25,WSW,253,1.0,2.0,94,0.00,,,0.00,0.0,WUHU216DAVISVP2,2013-09-29 09:12:00,
2013-09-29 05:17:00,47.3,45.6,30.25,WSW,253,1.0,2.0,94,0.00,,,0.00,0.0,WUHU216DAVISVP2,2013-09-29 09:17:00,
2013-09-29 05:22:00,47.1,45.4,30.25,WSW,253,1.0,2.0,94,0.00,,,0.00,0.0,WUHU216DAVISVP2,2013-09-29 09:22:00,
2013-09-29 05:27:00,47.1,45.4,30.25,WSW,253,0.0,2.0,94,0.00,,,0.00,0.0,WUHU216DAVISVP2,2013-09-29 09:27:00,
2013-09-29 05:32:00,47.2,45.5,30.25,WSW,253,0.0,2.0,94,0.00,,,0.00,0.0,WUHU216DAVISVP2,2013-09-29 09:32:00,
2013-09-29 05:37:00,47.2,45.5,30.25,WSW,253,0.0,2.0,94,0.00,,,0.00,0.0,WUHU216DAVISVP2,2013-09-29 09:37:00,
2013-09-29 05:42:00,47.2,45.5,30.25,WSW,253,1.0,1.0,94,0.00,,,0.00,0.0,WUHU216DAVISVP2,2013-09-29 09:42:00,
2013-09-29 05:47:00,47.2,45.5,30.25,WSW,253,1.0,1.0,94,0.00,,,0.00,0.0,WUHU216DAVISVP2,2013-09-29 09:47:00,
2013-09-29 05:52:00,47.2,45.5,30.25,WSW,253,0.0,1.0,94,0.00,,,0.00,0.0,WUHU216DAVISVP2,2013-09-29 09:52:00,
2013-09-29 05:57:00,47.3,45.7,30.25,WSW,253,0.0,1.0,94,0.00,,,0.00,0.0,WUHU216DAVISVP2,2013-09-29 09:57:00,
2013-09-29 06:02:00,47.2,45.6,30.25,WSW,253,1.0,2.0,94,0.00,,,0.00,0.0,WUHU216DAVISVP2,2013-09-29 10:02:00,
2013-09-29 06:07:00,46.9,45.3,30.25,WSW,253,0.0,2.0,94,0.00,,,0.00,0.0,WUHU216DAVISVP2,2013-09-29 10:07:00,
2013-09-29 06:12:00,46.9,45.2,30.25,WSW,253,0.0,2.0,94,0.00,,,0.00,0.0,WUHU216DAVISVP2,2013-09-29 10:12:00,
2013-09-29 06:17:00,46.7,45.0,30.25,WSW,253,1.0,2.0,94,0.00,,,0.00,0.0,WUHU216DAVISVP2,2013-09-29 10:17:00,
2013-09-29 06:22:00,46.7,45.0,30.25,WSW,253,0.0,2.0,94,0.00,,,0.00,0.0,WUHU216DAVISVP2,2013-09-29 10:22:00,
2013-09-29 06:27:00,46.7,45.0,30.25,WSW,253,0.0,1.0,94,0.00,,,0.00,0.0,WUHU216DAVISVP2,2013-09-29 10:27:00,
2013-09-29 06:32:00,46.7,45.0,30.25,WSW,253,0.0,1.0,94,0.00,,,0.00,0.0,WUHU216DAVISVP2,2013-09-29 10:32:00,
2013-09-29 06:37:00,46.5,44.8,30.25,WSW,253,0.0,1.0,94,0.00,,,0.00,0.0,WUHU216DAVISVP2,2013-09-29 10:37:00,
2013-09-29 06:42:00,46.5,44.8,30.25,WSW,253,0.0,1.0,94,0.00,,,0.00,0.0,WUHU216DAVISVP2,2013-09-29 10:42:00,
2013-09-29 06:47:00,46.6,44.9,30.24,WSW,253,0.0,1.0,94,0.00,,,0.00,0.0,WUHU216DAVISVP2,2013-09-29 10:47:00,
2013-09-29 06:52:00,46.8,45.1,30.24,WSW,253,1.0,1.0,94,0.00,,,0.00,5.0,WUHU216DAVISVP2,2013-09-29 10:52:00,
2013-09-29 06:57:00,46.8,45.1,30.24,WSW,253,0.0,2.0,94,0.00,,,0.00,5.0,WUHU216DAVISVP2,2013-09-29 10:57:00,
2013-09-29 07:02:00,46.9,45.2,30.25,WSW,253,0.0,2.0,94,0.00,,,0.00,9.0,WUHU216DAVISVP2,2013-09-29 11:02:00,
2013-09-29 07:07:00,46.9,45.2,30.25,WSW,253,1.0,2.0,94,0.00,,,0.00,11.0,WUHU216DAVISVP2,2013-09-29 11:07:00,
2013-09-29 07:12:00,47.0,45.3,30.25,WSW,253,0.0,1.0,94,0.00,,,0.00,12.0,WUHU216DAVISVP2,2013-09-29 11:12:00,
2013-09-29 07:17:00,47.2,45.8,30.25,WSW,253,0.0,1.0,95,0.00,,,0.00,16.0,WUHU216DAVISVP2,2013-09-29 11:17:00,
2013-09-29 07:22:00,47.1,45.7,30.24,WSW,253,1.0,2.0,95,0.00,,,0.00,19.0,WUHU216DAVISVP2,2013-09-29 11:22:00,
2013-09-29 07:27:00,47.4,46.0,30.24,WSW,253,0.0,2.0,95,0.00,,,0.00,21.0,WUHU216DAVISVP2,2013-09-29 11:27:00,
2013-09-29 07:32:00,47.3,45.9,30.24,WSW,253,0.0,2.0,95,0.00,,,0.00,25.0,WUHU216DAVISVP2,2013-09-29 11:32:00,
2013-09-29 07:37:00,47.4,45.8,30.24,WSW,253,1.0,2.0,94,0.00,,,0.00,28.0,WUHU216DAVISVP2,2013-09-29 11:37:00,
2013-09-29 07:42:00,47.6,45.9,30.25,WSW,253,1.0,2.0,94,0.00,,,0.00,30.0,WUHU216DAVISVP2,2013-09-29 11:42:00,
2013-09-29 07:47:00,47.5,45.8,30.24,WSW,253,0.0,2.0,94,0.00,,,0.00,37.0,WUHU216DAVISVP2,2013-09-29 11:47:00,
2013-09-29 07:52:00,47.7,46.3,30.24,WSW,253,0.0,2.0,95,0.00,,,0.00,39.0,WUHU216DAVISVP2,2013-09-29 11:52:00,
2013-09-29 07:57:00,47.9,46.5,30.24,WSW,253,0.0,2.0,95,0.00,,,0.00,42.0,WUHU216DAVISVP2,2013-09-29 11:57:00,
2013-09-29 08:02:00,47.9,46.5,30.24,WSW,253,1.0,2.0,95,0.00,,,0.00,46.0,WUHU216DAVISVP2,2013-09-29 12:02:00,
2013-09-29 08:07:00,48.0,46.6,30.24,WSW,253,0.0,1.0,95,0.00,,,0.00,46.0,WUHU216DAVISVP2,2013-09-29 12:07:00,
2013-09-29 08:12:00,48.1,46.7,30.24,WSW,253,0.0,1.0,95,0.00,,,0.00,47.0,WUHU216DAVISVP2,2013-09-29 12:12:00,
2013-09-29 08:17:00,48.1,46.7,30.24,WSW,253,1.0,1.0,95,0.00,,,0.00,51.0,WUHU216DAVISVP2,2013-09-29 12:17:00,
2013-09-29 08:22:00,48.3,46.9,30.24,WSW,253,0.0,1.0,95,0.00,,,0.00,60.0,WUHU216DAVISVP2,2013-09-29 12:22:00,
2013-09-29 08:27:00,48.8,47.4,30.24,WSW,253,1.0,2.0,95,0.00,,,0.00,63.0,WUHU216DAVISVP2,2013-09-29 12:27:00,
2013-09-29 08:32:00,48.5,47.1,30.24,WSW,253,0.0,2.0,95,0.00,,,0.00,77.0,WUHU216DAVISVP2,2013-09-29 12:32:00,
2013-09-29 08:37:00,48.6,47.2,30.24,WSW,253,0.0,2.0,95,0.00,,,0.00,84.0,WUHU216DAVISVP2,2013-09-29 12:37:00,
2013-09-29 08:42:00,49.3,47.9,30.24,WSW,253,0.0,2.0,95,0.00,,,0.00,91.0,WUHU216DAVISVP2,2013-09-29 12:42:00,
2013-09-29 08:47:00,48.9,47.5,30.24,WSW,253,1.0,2.0,95,0.00,,,0.00,97.0,WUHU216DAVISVP2,2013-09-29 12:47:00,
2013-09-29 08:52:00,49.2,47.8,30.24,WSW,253,1.0,2.0,95,0.00,,,0.00,91.0,WUHU216DAVISVP2,2013-09-29 12:52:00,
2013-09-29 08:57:00,49.1,47.7,30.24,WSW,253,0.0,2.0,95,0.00,,,0.00,109.0,WUHU216DAVISVP2,2013-09-29 12:57:00,
2013-09-29 09:02:00,49.7,48.3,30.24,WSW,252,0.0,2.0,95,0.00,,,0.00,130.0,WUHU216DAVISVP2,2013-09-29 13:02:00,
2013-09-29 09:07:00,49.5,48.1,30.24,WSW,250,1.0,2.0,95,0.00,,,0.00,121.0,WUHU216DAVISVP2,2013-09-29 13:07:00,
2013-09-29 09:10:00,49.5,48.1,30.24,WSW,248,1.0,2.0,95,0.00,,,0.00,124.0,WUHU216DAVISVP2,2013-09-29 13:10:00,
2013-09-29 09:15:00,49.9,48.5,30.24,WSW,248,0.0,2.0,95,0.00,,,0.00,138.0,WUHU216DAVISVP2,2013-09-29 13:15:00,
2013-09-29 09:20:00,50.4,49.0,30.24,WSW,248,1.0,2.0,95,0.00,,,0.00,175.0,WUHU216DAVISVP2,2013-09-29 13:20:00,
2013-09-29 09:25:00,50.2,48.8,30.24,WSW,248,1.0,2.0,95,0.00,,,0.00,178.0,WUHU216DAVISVP2,2013-09-29 13:25:00,
2013-09-29 09:30:00,51.1,49.7,30.24,WSW,248,0.0,2.0,95,0.00,,,0.00,195.0,WUHU216DAVISVP2,2013-09-29 13:30:00,
2013-09-29 09:35:00,51.3,49.9,30.24,WSW,248,0.0,2.0,95,0.00,,,0.00,233.0,WUHU216DAVISVP2,2013-09-29 13:35:00,
2013-09-29 09:40:00,51.3,49.9,30.24,WSW,248,1.0,3.0,95,0.00,,,0.00,286.0,WUHU216DAVISVP2,2013-09-29 13:40:00,
2013-09-29 09:45:00,51.9,50.5,30.23,WSW,248,1.0,3.0,95,0.00,,,0.00,356.0,WUHU216DAVISVP2,2013-09-29 13:45:00,
2013-09-29 09:50:00,52.9,51.5,30.24,WSW,248,1.0,3.0,95,0.00,,,0.00,446.0,WUHU216DAVISVP2,2013-09-29 13:50:00,
2013-09-29 10:03:00,53.8,52.4,30.23,WSW,250,1.0,2.0,95,0.00,,,0.00,339.0,WUHU216DAVISVP2,2013-09-29 14:03:00,
2013-09-29 10:08:00,55.2,53.8,30.23,WSW,251,1.0,2.0,95,0.00,,,0.00,336.0,WUHU216DAVISVP2,2013-09-29 14:08:00,
2013-09-29 10:15:00,56.4,54.7,30.23,WSW,252,1.0,1.0,94,0.00,,,0.00,83,Wunderground v.1.15,2013-09-29 14:15:00,
2013-09-29 10:20:00,57.1,53.9,30.23,WSW,252,1.0,2.0,89,0.00,,,0.00,369.0,WUHU216DAVISVP2,2013-09-29 14:20:00,
2013-09-29 10:25:00,58.5,54.3,30.23,WSW,252,0.0,2.0,86,0.00,,,0.00,584.0,WUHU216DAVISVP2,2013-09-29 14:25:00,
2013-09-29 10:30:00,59.8,54.0,30.23,WSW,250,1.0,2.0,81,0.00,,,0.00,594.0,WUHU216DAVISVP2,2013-09-29 14:30:00,
2013-09-29 10:35:00,60.2,54.1,30.23,WSW,250,2.0,3.0,80,0.00,,,0.00,605.0,WUHU216DAVISVP2,2013-09-29 14:35:00,
2013-09-29 10:40:00,61.0,55.5,30.23,WSW,247,1.0,3.0,82,0.00,,,0.00,612.0,WUHU216DAVISVP2,2013-09-29 14:40:00,
2013-09-29 10:45:00,61.6,54.8,30.22,WSW,246,2.0,3.0,78,0.00,,,0.00,624.0,WUHU216DAVISVP2,2013-09-29 14:45:00,
2013-09-29 10:50:00,61.4,54.2,30.22,WNW,283,1.0,3.0,77,0.00,,,0.00,635.0,WUHU216DAVISVP2,2013-09-29 14:50:00,
2013-09-29 10:55:00,61.4,53.8,30.22,West,265,3.0,3.0,76,0.00,,,0.00,643.0,WUHU216DAVISVP2,2013-09-29 14:55:00,
2013-09-29 11:00:00,63.4,56.5,30.22,WSW,254,2.0,3.0,78,0.00,,,0.00,647.0,WUHU216DAVISVP2,2013-09-29 15:00:00,
2013-09-29 11:05:00,64.2,55.9,30.22,WNW,295,2.0,3.0,74,0.00,,,0.00,657.0,WUHU216DAVISVP2,2013-09-29 15:05:00,
2013-09-29 11:10:00,64.0,53.8,30.21,West,260,3.0,3.0,69,0.00,,,0.00,666.0,WUHU216DAVISVP2,2013-09-29 15:10:00,
2013-09-29 11:15:00,65.8,54.3,30.21,SE,138,1.0,3.0,66,0.00,,,0.00,671.0,WUHU216DAVISVP2,2013-09-29 15:15:00,
2013-09-29 11:20:00,66.2,55.1,30.21,WNW,287,1.0,3.0,67,0.00,,,0.00,680.0,WUHU216DAVISVP2,2013-09-29 15:20:00,
2013-09-29 11:25:00,65.5,55.1,30.21,NW,304,2.0,3.0,69,0.00,,,0.00,687.0,WUHU216DAVISVP2,2013-09-29 15:25:00,
2013-09-29 11:30:00,65.7,54.8,30.21,West,275,0.0,3.0,68,0.00,,,0.00,694.0,WUHU216DAVISVP2,2013-09-29 15:30:00,
2013-09-29 11:35:00,66.6,55.5,30.20,East,80,1.0,3.0,67,0.00,,,0.00,701.0,WUHU216DAVISVP2,2013-09-29 15:35:00,
2013-09-29 11:40:00,68.1,55.2,30.20,ENE,76,1.0,7.0,63,0.00,,,0.00,708.0,WUHU216DAVISVP2,2013-09-29 15:40:00,
2013-09-29 11:45:00,68.5,54.7,30.20,WSW,250,0.0,7.0,61,0.00,,,0.00,714.0,WUHU216DAVISVP2,2013-09-29 15:45:00,
2013-09-29 11:50:00,68.3,53.6,30.20,WNW,286,2.0,6.0,59,0.00,,,0.00,719.0,WUHU216DAVISVP2,2013-09-29 15:50:00,
2013-09-29 11:55:00,69.0,56.1,30.20,West,275,1.0,6.0,63,0.00,,,0.00,722.0,WUHU216DAVISVP2,2013-09-29 15:55:00,
2013-09-29 12:00:00,69.8,55.3,30.20,NNW,344,2.0,5.0,60,0.00,,,0.00,726.0,WUHU216DAVISVP2,2013-09-29 16:00:00,
2013-09-29 12:05:00,69.1,54.2,30.20,WSW,256,3.0,5.0,59,0.00,,,0.00,731.0,WUHU216DAVISVP2,2013-09-29 16:05:00,
2013-09-29 12:10:00,68.7,54.9,30.20,NE,46,2.0,4.0,61,0.00,,,0.00,733.0,WUHU216DAVISVP2,2013-09-29 16:10:00,
2013-09-29 12:15:00,68.9,55.1,30.20,NNW,329,0.0,4.0,61,0.00,,,0.00,737.0,WUHU216DAVISVP2,2013-09-29 16:15:00,
2013-09-29 12:20:00,69.1,55.7,30.19,West,267,1.0,4.0,62,0.00,,,0.00,740.0,WUHU216DAVISVP2,2013-09-29 16:20:00,
2013-09-29 12:25:00,69.3,54.5,30.19,WSW,249,3.0,4.0,59,0.00,,,0.00,742.0,WUHU216DAVISVP2,2013-09-29 16:25:00,
2013-09-29 12:30:00,69.3,54.5,30.19,WSW,258,6.0,6.0,59,0.00,,,0.00,740.0,WUHU216DAVISVP2,2013-09-29 16:30:00,
2013-09-29 12:35:00,70.4,54.6,30.19,WSW,249,1.0,6.0,57,0.00,,,0.00,744.0,WUHU216DAVISVP2,2013-09-29 16:35:00,
2013-09-29 12:40:00,71.6,53.6,30.19,ENE,70,3.0,6.0,53,0.00,,,0.00,745.0,WUHU216DAVISVP2,2013-09-29 16:40:00,
2013-09-29 12:45:00,70.8,55.9,30.19,WNW,300,1.0,5.0,59,0.00,,,0.00,747.0,WUHU216DAVISVP2,2013-09-29 16:45:00,
2013-09-29 12:50:00,70.8,54.0,30.18,North,5,1.0,4.0,55,0.00,,,0.00,751.0,WUHU216DAVISVP2,2013-09-29 16:50:00,
2013-09-29 12:55:00,73.1,54.5,30.18,NE,44,1.0,4.0,52,0.00,,,0.00,744.0,WUHU216DAVISVP2,2013-09-29 16:55:00,
2013-09-29 13:00:00,72.3,53.7,30.18,NNE,20,3.0,5.0,52,0.00,,,0.00,749.0,WUHU216DAVISVP2,2013-09-29 17:00:00,
2013-09-29 13:05:00,70.0,51.1,30.17,NNE,32,2.0,5.0,51,0.00,,,0.00,745.0,WUHU216DAVISVP2,2013-09-29 17:05:00,
2013-09-29 13:10:00,69.9,52.6,30.17,NW,304,2.0,6.0,54,0.00,,,0.00,744.0,WUHU216DAVISVP2,2013-09-29 17:10:00,
2013-09-29 13:15:00,70.7,52.3,30.17,ESE,115,1.0,6.0,52,0.00,,,0.00,742.0,WUHU216DAVISVP2,2013-09-29 17:15:00,
2013-09-29 13:20:00,70.5,52.5,30.17,South,184,1.0,5.0,53,0.00,,,0.00,761.0,WUHU216DAVISVP2,2013-09-29 17:20:00,
2013-09-29 13:25:00,71.3,51.1,30.17,SW,227,1.0,5.0,49,0.00,,,0.00,766.0,WUHU216DAVISVP2,2013-09-29 17:25:00,
2013-09-29 13:30:00,70.5,51.6,30.17,West,268,1.0,5.0,51,0.00,,,0.00,809.0,WUHU216DAVISVP2,2013-09-29 17:30:00,
2013-09-29 13:35:00,71.7,52.7,30.17,WSW,253,4.0,5.0,51,0.00,,,0.00,759.0,WUHU216DAVISVP2,2013-09-29 17:35:00,
2013-09-29 13:40:00,71.1,52.1,30.16,NE,50,3.0,6.0,51,0.00,,,0.00,744.0,WUHU216DAVISVP2,2013-09-29 17:40:00,
2013-09-29 13:45:00,71.5,53.6,30.16,NNE,24,1.0,6.0,53,0.00,,,0.00,779.0,WUHU216DAVISVP2,2013-09-29 17:45:00,
2013-09-29 13:50:00,72.4,52.7,30.16,NNE,24,0.0,5.0,50,0.00,,,0.00,172.0,WUHU216DAVISVP2,2013-09-29 17:50:00,
2013-09-29 13:55:00,70.3,51.4,30.16,South,185,1.0,5.0,51,0.00,,,0.00,165.0,WUHU216DAVISVP2,2013-09-29 17:55:00,
2013-09-29 14:00:00,69.4,53.2,30.16,SE,143,1.0,3.0,56,0.00,,,0.00,142.0,WUHU216DAVISVP2,2013-09-29 18:00:00,
2013-09-29 14:05:00,70.5,56.1,30.16,ENE,65,1.0,3.0,60,0.00,,,0.00,599.0,WUHU216DAVISVP2,2013-09-29 18:05:00,
2013-09-29 14:10:00,72.7,53.6,30.16,ENE,69,1.0,3.0,51,0.00,,,0.00,749.0,WUHU216DAVISVP2,2013-09-29 18:10:00,
2013-09-29 14:15:00,73.8,52.3,30.16,NW,309,2.0,2.0,47,0.00,,,0.00,756.0,WUHU216DAVISVP2,2013-09-29 18:15:00,
2013-09-29 14:20:00,72.8,52.6,30.16,NW,304,2.0,4.0,49,0.00,,,0.00,737.0,WUHU216DAVISVP2,2013-09-29 18:20:00,
2013-09-29 14:25:00,73.3,53.5,30.16,WSW,246,1.0,4.0,50,0.00,,,0.00,749.0,WUHU216DAVISVP2,2013-09-29 18:25:00,
2013-09-29 14:30:00,73.8,51.7,30.15,NNW,330,1.0,4.0,46,0.00,,,0.00,751.0,WUHU216DAVISVP2,2013-09-29 18:30:00,
2013-09-29 14:35:00,73.4,50.7,30.15,West,280,2.0,4.0,45,0.00,,,0.00,775.0,WUHU216DAVISVP2,2013-09-29 18:35:00,
2013-09-29 14:40:00,71.8,51.1,30.15,NNE,16,2.0,6.0,48,0.00,,,0.00,749.0,WUHU216DAVISVP2,2013-09-29 18:40:00,
2013-09-29 14:45:00,72.7,50.7,30.15,North,11,3.0,6.0,46,0.00,,,0.00,768.0,WUHU216DAVISVP2,2013-09-29 18:45:00,
2013-09-29 14:50:00,72.5,50.5,30.15,SSE,161,2.0,6.0,46,0.00,,,0.00,700.0,WUHU216DAVISVP2,2013-09-29 18:50:00,
2013-09-29 14:55:00,72.3,49.7,30.15,SSE,159,1.0,4.0,45,0.00,,,0.00,691.0,WUHU216DAVISVP2,2013-09-29 18:55:00,
2013-09-29 15:00:00,72.8,50.8,30.14,North,5,2.0,4.0,46,0.00,,,0.00,638.0,WUHU216DAVISVP2,2013-09-29 19:00:00,
2013-09-29 15:05:00,74.2,51.5,30.14,NNW,336,1.0,4.0,45,0.00,,,0.00,635.0,WUHU216DAVISVP2,2013-09-29 19:05:00,
2013-09-29 15:10:00,74.1,52.6,30.14,SE,130,1.0,4.0,47,0.00,,,0.00,621.0,WUHU216DAVISVP2,2013-09-29 19:10:00,
2013-09-29 15:15:00,74.2,51.5,30.13,WNW,288,1.0,4.0,45,0.00,,,0.00,578.0,WUHU216DAVISVP2,2013-09-29 19:15:00,
2013-09-29 15:20:00,71.6,51.5,30.13,West,267,2.0,4.0,49,0.00,,,0.00,555.0,WUHU216DAVISVP2,2013-09-29 19:20:00,
2013-09-29 15:25:00,71.1,51.6,30.13,WNW,290,1.0,4.0,50,0.00,,,0.00,543.0,WUHU216DAVISVP2,2013-09-29 19:25:00,
2013-09-29 15:30:00,73.0,52.8,30.13,NE,44,2.0,4.0,49,0.00,,,0.00,527.0,WUHU216DAVISVP2,2013-09-29 19:30:00,
2013-09-29 15:35:00,72.0,50.7,30.12,SW,236,1.0,4.0,47,0.00,,,0.00,506.0,WUHU216DAVISVP2,2013-09-29 19:35:00,
2013-09-29 15:40:00,70.8,50.7,30.12,WSW,246,1.0,4.0,49,0.00,,,0.00,153.0,WUHU216DAVISVP2,2013-09-29 19:40:00,
2013-09-29 15:45:00,71.4,53.0,30.12,NE,42,1.0,4.0,52,0.00,,,0.00,190.0,WUHU216DAVISVP2,2013-09-29 19:45:00,
2013-09-29 15:48:00,72.3,51.5,30.12,SE,146,0.0,6.0,48,0.00,,,0.00,77.0,WUHU216DAVISVP2,2013-09-29 19:48:00,
2013-09-29 15:53:00,70.8,51.3,30.12,WSW,240,1.0,6.0,50,0.00,,,0.00,204.0,WUHU216DAVISVP2,2013-09-29 19:53:00,
2013-09-29 15:58:00,71.3,51.8,30.12,West,270,1.0,6.0,50,0.00,,,0.00,60.0,WUHU216DAVISVP2,2013-09-29 19:58:00,
2013-09-29 16:03:00,71.7,52.1,30.12,NE,42,1.0,6.0,50,0.00,,,0.00,46.0,WUHU216DAVISVP2,2013-09-29 20:03:00,
2013-09-29 16:08:00,70.9,51.4,30.11,ENE,76,0.0,4.0,50,0.00,,,0.00,47.0,WUHU216DAVISVP2,2013-09-29 20:08:00,
2013-09-29 16:13:00,70.9,52.5,30.11,West,275,1.0,4.0,52,0.00,,,0.00,54.0,WUHU216DAVISVP2,2013-09-29 20:13:00,
2013-09-29 16:18:00,70.5,51.5,30.11,West,269,2.0,4.0,51,0.00,,,0.00,294.0,WUHU216DAVISVP2,2013-09-29 20:18:00,
2013-09-29 16:23:00,70.1,52.3,30.11,West,263,1.0,3.0,53,0.00,,,0.00,97.0,WUHU216DAVISVP2,2013-09-29 20:23:00,
2013-09-29 16:28:00,70.1,52.2,30.11,NE,49,1.0,3.0,53,0.00,,,0.00,72.0,WUHU216DAVISVP2,2013-09-29 20:28:00,
2013-09-29 16:33:00,70.2,52.3,30.11,WNW,292,1.0,3.0,53,0.00,,,0.00,42.0,WUHU216DAVISVP2,2013-09-29 20:33:00,
2013-09-29 16:38:00,70.2,51.7,30.11,WNW,294,0.0,3.0,52,0.00,,,0.00,39.0,WUHU216DAVISVP2,2013-09-29 20:38:00,
2013-09-29 16:43:00,69.9,50.9,30.11,West,275,1.0,3.0,51,0.00,,,0.00,37.0,WUHU216DAVISVP2,2013-09-29 20:43:00,
2013-09-29 16:48:00,69.9,52.1,30.11,West,278,0.0,3.0,53,0.00,,,0.00,40.0,WUHU216DAVISVP2,2013-09-29 20:48:00,
2013-09-29 16:53:00,70.1,51.7,30.11,WNW,290,0.0,3.0,52,0.00,,,0.00,76.0,WUHU216DAVISVP2,2013-09-29 20:53:00,
2013-09-29 16:58:00,70.8,51.3,30.11,NNE,29,0.0,3.0,50,0.00,,,0.00,62.0,WUHU216DAVISVP2,2013-09-29 20:58:00,
2013-09-29 17:03:00,70.5,51.6,30.11,ENE,59,2.0,3.0,51,0.00,,,0.00,83.0,WUHU216DAVISVP2,2013-09-29 21:03:00,
2013-09-29 17:08:00,69.9,51.0,30.11,North,355,1.0,3.0,51,0.00,,,0.00,53.0,WUHU216DAVISVP2,2013-09-29 21:08:00,
2013-09-29 17:13:00,70.4,54.1,30.11,North,355,1.0,3.0,56,0.00,,,0.00,77.0,WUHU216DAVISVP2,2013-09-29 21:13:00,
2013-09-29 17:18:00,70.5,52.7,30.11,NE,49,1.0,3.0,53,0.00,,,0.00,176.0,WUHU216DAVISVP2,2013-09-29 21:18:00,
2013-09-29 17:23:00,70.0,52.7,30.11,NNE,30,1.0,2.0,54,0.00,,,0.00,114.0,WUHU216DAVISVP2,2013-09-29 21:23:00,
2013-09-29 17:28:00,69.4,51.0,30.11,NNE,19,1.0,2.0,52,0.00,,,0.00,30.0,WUHU216DAVISVP2,2013-09-29 21:28:00,
2013-09-29 17:33:00,68.3,51.6,30.11,NNE,19,0.0,2.0,55,0.00,,,0.00,30.0,WUHU216DAVISVP2,2013-09-29 21:33:00,
2013-09-29 17:38:00,67.7,52.5,30.11,NNE,19,0.0,2.0,58,0.00,,,0.00,33.0,WUHU216DAVISVP2,2013-09-29 21:38:00,
2013-09-29 17:43:00,67.2,53.0,30.11,NNE,19,0.0,2.0,60,0.00,,,0.00,21.0,WUHU216DAVISVP2,2013-09-29 21:43:00,
2013-09-29 17:48:00,66.3,53.9,30.11,NNE,19,1.0,2.0,64,0.00,,,0.00,19.0,WUHU216DAVISVP2,2013-09-29 21:48:00,
2013-09-29 17:53:00,65.2,54.0,30.11,North,5,0.0,2.0,67,0.00,,,0.00,18.0,WUHU216DAVISVP2,2013-09-29 21:53:00,
2013-09-29 17:58:00,64.2,55.0,30.11,North,5,1.0,2.0,72,0.00,,,0.00,16.0,WUHU216DAVISVP2,2013-09-29 21:58:00,
2013-09-29 18:03:00,62.9,55.3,30.11,North,5,1.0,2.0,76,0.00,,,0.00,11.0,WUHU216DAVISVP2,2013-09-29 22:03:00,
2013-09-29 18:08:00,61.8,55.3,30.11,North,5,0.0,2.0,79,0.00,,,0.00,11.0,WUHU216DAVISVP2,2013-09-29 22:08:00,
2013-09-29 18:13:00,61.1,54.9,30.11,North,5,0.0,2.0,80,0.00,,,0.00,9.0,WUHU216DAVISVP2,2013-09-29 22:13:00,
2013-09-29 18:18:00,60.4,54.6,30.11,North,5,0.0,1.0,81,0.00,,,0.00,7.0,WUHU216DAVISVP2,2013-09-29 22:18:00,
2013-09-29 18:23:00,60.0,54.5,30.11,North,5,0.0,1.0,82,0.00,,,0.00,5.0,WUHU216DAVISVP2,2013-09-29 22:23:00,
2013-09-29 18:28:00,59.7,54.5,30.11,North,5,0.0,1.0,83,0.00,,,0.00,5.0,WUHU216DAVISVP2,2013-09-29 22:28:00,
2013-09-29 18:33:00,59.2,54.4,30.11,North,5,0.0,1.0,84,0.00,,,0.00,0.0,WUHU216DAVISVP2,2013-09-29 22:33:00,
2013-09-29 18:38:00,58.7,54.2,30.11,North,5,0.0,1.0,85,0.00,,,0.00,0.0,WUHU216DAVISVP2,2013-09-29 22:38:00,
2013-09-29 18:43:00,58.3,53.5,30.11,North,5,0.0,1.0,84,0.00,,,0.00,0.0,WUHU216DAVISVP2,2013-09-29 22:43:00,
2013-09-29 18:48:00,58.2,53.7,30.11,North,5,0.0,1.0,85,0.00,,,0.00,0.0,WUHU216DAVISVP2,2013-09-29 22:48:00,
2013-09-29 18:53:00,57.6,53.1,30.11,North,5,0.0,1.0,85,0.00,,,0.00,0.0,WUHU216DAVISVP2,2013-09-29 22:53:00,
2013-09-29 18:58:00,57.2,52.7,30.11,North,5,0.0,1.0,85,0.00,,,0.00,0.0,WUHU216DAVISVP2,2013-09-29 22:58:00,
2013-09-29 19:03:00,57.0,52.8,30.11,North,5,0.0,1.0,86,0.00,,,0.00,0.0,WUHU216DAVISVP2,2013-09-29 23:03:00,
2013-09-29 19:08:00,56.8,53.0,30.11,North,5,0.0,1.0,87,0.00,,,0.00,0.0,WUHU216DAVISVP2,2013-09-29 23:08:00,
2013-09-29 19:13:00,56.4,52.3,30.11,North,5,0.0,1.0,86,0.00,,,0.00,0.0,WUHU216DAVISVP2,2013-09-29 23:13:00,
2013-09-29 19:18:00,56.2,52.4,30.11,North,5,0.0,1.0,87,0.00,,,0.00,0.0,WUHU216DAVISVP2,2013-09-29 23:18:00,
2013-09-29 19:23:00,55.9,52.1,30.11,North,5,0.0,1.0,87,0.00,,,0.00,0.0,WUHU216DAVISVP2,2013-09-29 23:23:00,
2013-09-29 19:28:00,56.0,52.2,30.12,North,5,0.0,1.0,87,0.00,,,0.00,0.0,WUHU216DAVISVP2,2013-09-29 23:28:00,
2013-09-29 19:33:00,56.2,52.4,30.12,North,5,0.0,1.0,87,0.00,,,0.00,0.0,WUHU216DAVISVP2,2013-09-29 23:33:00,
2013-09-29 19:38:00,56.2,52.1,30.12,NW,321,2.0,2.0,86,0.00,,,0.00,0.0,WUHU216DAVISVP2,2013-09-29 23:38:00,
2013-09-29 19:43:00,56.1,52.0,30.12,NNW,329,0.0,2.0,86,0.00,,,0.00,0.0,WUHU216DAVISVP2,2013-09-29 23:43:00,
2013-09-29 19:48:00,56.5,52.0,30.12,NNW,329,1.0,2.0,85,0.00,,,0.00,0.0,WUHU216DAVISVP2,2013-09-29 23:48:00,
2013-09-29 20:02:00,57.2,51.5,30.13,ENE,77,1.0,3.0,81,0.00,,,0.00,0.0,WUHU216DAVISVP2,2013-09-30 00:02:00,
2013-09-29 20:07:00,56.4,51.3,30.13,ESE,113,0.0,3.0,83,0.00,,,0.00,0.0,WUHU216DAVISVP2,2013-09-30 00:07:00,
2013-09-29 20:12:00,56.3,51.2,30.13,ESE,113,0.0,3.0,83,0.00,,,0.00,0.0,WUHU216DAVISVP2,2013-09-30 00:12:00,
2013-09-29 20:17:00,56.7,51.0,30.13,East,84,0.0,3.0,81,0.00,,,0.00,0.0,WUHU216DAVISVP2,2013-09-30 00:17:00,
2013-09-29 20:22:00,55.7,50.9,30.13,East,84,1.0,3.0,84,0.00,,,0.00,0.0,WUHU216DAVISVP2,2013-09-30 00:22:00,
2013-09-29 20:27:00,54.9,50.8,30.13,East,84,0.0,3.0,86,0.00,,,0.00,0.0,WUHU216DAVISVP2,2013-09-30 00:27:00,
2013-09-29 20:32:00,55.1,50.7,30.13,East,84,0.0,3.0,85,0.00,,,0.00,0.0,WUHU216DAVISVP2,2013-09-30 00:32:00,
2013-09-29 20:37:00,54.8,50.4,30.13,East,84,0.0,1.0,85,0.00,,,0.00,0.0,WUHU216DAVISVP2,2013-09-30 00:37:00,
2013-09-29 20:42:00,54.8,50.4,30.13,East,84,1.0,2.0,85,0.00,,,0.00,0.0,WUHU216DAVISVP2,2013-09-30 00:42:00,
2013-09-29 20:47:00,54.9,50.2,30.14,West,270,1.0,3.0,84,0.00,,,0.00,0.0,WUHU216DAVISVP2,2013-09-30 00:47:00,
2013-09-29 20:52:00,54.3,50.2,30.14,West,270,0.0,3.0,86,0.00,,,0.00,0.0,WUHU216DAVISVP2,2013-09-30 00:52:00,
2013-09-29 20:57:00,54.1,50.0,30.14,West,270,1.0,3.0,86,0.00,,,0.00,0.0,WUHU216DAVISVP2,2013-09-30 00:57:00,
2013-09-29 21:02:00,54.4,50.0,30.14,West,270,1.0,3.0,85,0.00,,,0.00,0.0,WUHU216DAVISVP2,2013-09-30 01:02:00,
2013-09-29 21:07:00,53.2,49.4,30.14,West,270,2.0,2.0,87,0.00,,,0.00,0.0,WUHU216DAVISVP2,2013-09-30 01:07:00,
2013-09-29 21:12:00,52.8,49.3,30.14,West,270,0.0,2.0,88,0.00,,,0.00,0.0,WUHU216DAVISVP2,2013-09-30 01:12:00,
2013-09-29 21:17:00,52.7,48.9,30.14,West,270,0.0,2.0,87,0.00,,,0.00,0.0,WUHU216DAVISVP2,2013-09-30 01:17:00,
2013-09-29 21:22:00,52.4,48.9,30.14,West,270,0.0,2.0,88,0.00,,,0.00,0.0,WUHU216DAVISVP2,2013-09-30 01:22:00,
2013-09-29 21:27:00,52.5,49.0,30.15,West,270,0.0,2.0,88,0.00,,,0.00,0.0,WUHU216DAVISVP2,2013-09-30 01:27:00,
2013-09-29 21:32:00,52.5,48.7,30.14,West,270,0.0,2.0,87,0.00,,,0.00,0.0,WUHU216DAVISVP2,2013-09-30 01:32:00,
2013-09-29 21:37:00,52.5,48.7,30.14,West,270,1.0,2.0,87,0.00,,,0.00,0.0,WUHU216DAVISVP2,2013-09-30 01:37:00,
2013-09-29 21:42:00,52.7,48.6,30.14,West,270,0.0,2.0,86,0.00,,,0.00,0.0,WUHU216DAVISVP2,2013-09-30 01:42:00,
2013-09-29 21:47:00,53.2,48.8,30.14,NE,42,0.0,4.0,85,0.00,,,0.00,0.0,WUHU216DAVISVP2,2013-09-30 01:47:00,
2013-09-29 21:52:00,53.3,48.6,30.14,NE,42,0.0,4.0,84,0.00,,,0.00,0.0,WUHU216DAVISVP2,2013-09-30 01:52:00,
2013-09-29 21:57:00,53.2,48.5,30.14,NE,42,0.0,4.0,84,0.00,,,0.00,0.0,WUHU216DAVISVP2,2013-09-30 01:57:00,
2013-09-29 22:02:00,53.2,48.5,30.14,NE,42,0.0,4.0,84,0.00,,,0.00,0.0,WUHU216DAVISVP2,2013-09-30 02:02:00,
2013-09-29 22:07:00,52.9,48.2,30.14,NE,42,0.0,2.0,84,0.00,,,0.00,0.0,WUHU216DAVISVP2,2013-09-30 02:07:00,
2013-09-29 22:12:00,53.0,48.3,30.14,NE,42,0.0,2.0,84,0.00,,,0.00,0.0,WUHU216DAVISVP2,2013-09-30 02:12:00,
2013-09-29 22:17:00,52.3,47.9,30.14,NNW,343,1.0,2.0,85,0.00,,,0.00,0.0,WUHU216DAVISVP2,2013-09-30 02:17:00,
2013-09-29 22:22:00,51.7,48.0,30.14,NNW,343,1.0,2.0,87,0.00,,,0.00,0.0,WUHU216DAVISVP2,2013-09-30 02:22:00,
2013-09-29 22:27:00,51.9,48.1,30.14,NNW,343,0.0,2.0,87,0.00,,,0.00,0.0,WUHU216DAVISVP2,2013-09-30 02:27:00,
2013-09-29 22:32:00,51.7,47.9,30.14,NNW,343,0.0,2.0,87,0.00,,,0.00,0.0,WUHU216DAVISVP2,2013-09-30 02:32:00,
2013-09-29 22:37:00,51.3,47.2,30.14,NNW,343,0.0,2.0,86,0.00,,,0.00,0.0,WUHU216DAVISVP2,2013-09-30 02:37:00,
2013-09-29 22:42:00,51.0,47.2,30.14,NNW,343,0.0,1.0,87,0.00,,,0.00,0.0,WUHU216DAVISVP2,2013-09-30 02:42:00,
2013-09-29 22:47:00,50.0,46.6,30.14,NNW,343,0.0,2.0,88,0.00,,,0.00,0.0,WUHU216DAVISVP2,2013-09-30 02:47:00,
2013-09-29 22:52:00,49.3,46.2,30.14,NNW,343,0.0,2.0,89,0.00,,,0.00,0.0,WUHU216DAVISVP2,2013-09-30 02:52:00,
2013-09-29 22:57:00,49.1,46.0,30.14,NNW,343,0.0,2.0,89,0.00,,,0.00,0.0,WUHU216DAVISVP2,2013-09-30 02:57:00,
2013-09-29 23:02:00,48.9,46.1,30.14,NNW,343,0.0,1.0,90,0.00,,,0.00,0.0,WUHU216DAVISVP2,2013-09-30 03:02:00,
2013-09-29 23:07:00,48.6,45.8,30.14,NNW,343,0.0,1.0,90,0.00,,,0.00,0.0,WUHU216DAVISVP2,2013-09-30 03:07:00,
2013-09-29 23:12:00,48.4,45.6,30.14,NNW,343,0.0,1.0,90,0.00,,,0.00,0.0,WUHU216DAVISVP2,2013-09-30 03:12:00,
2013-09-29 23:17:00,48.3,45.5,30.14,NNW,343,0.0,1.0,90,0.00,,,0.00,0.0,WUHU216DAVISVP2,2013-09-30 03:17:00,
2013-09-29 23:22:00,48.2,45.7,30.14,NNW,343,0.0,1.0,91,0.00,,,0.00,0.0,WUHU216DAVISVP2,2013-09-30 03:22:00,
2013-09-29 23:27:00,47.9,45.1,30.14,NNW,343,0.0,0.0,90,0.00,,,0.00,0.0,WUHU216DAVISVP2,2013-09-30 03:27:00,
2013-09-29 23:32:00,47.8,45.3,30.14,NNW,343,0.0,0.0,91,0.00,,,0.00,0.0,WUHU216DAVISVP2,2013-09-30 03:32:00,
2013-09-29 23:37:00,47.7,45.2,30.14,NNW,343,0.0,0.0,91,0.00,,,0.00,0.0,WUHU216DAVISVP2,2013-09-30 03:37:00,
2013-09-29 23:42:00,47.6,45.1,30.14,NNW,343,0.0,0.0,91,0.00,,,0.00,0.0,WUHU216DAVISVP2,2013-09-30 03:42:00,
2013-09-29 23:47:00,47.5,45.0,30.14,NNW,343,0.0,0.0,91,0.00,,,0.00,0.0,WUHU216DAVISVP2,2013-09-30 03:47:00,
2013-09-29 23:52:00,47.2,44.7,30.14,NNW,343,0.0,1.0,91,0.00,,,0.00,0.0,WUHU216DAVISVP2,2013-09-30 03:52:00,
2013-09-29 23:57:00,47.0,44.5,30.14,NNW,343,0.0,1.0,91,0.00,,,0.00,0.0,WUHU216DAVISVP2,2013-09-30 03:57:00,